Strona główna
METAR-TAF:

METAR-TAF

Lotnisko :

BEB

Benbecula, Szkocja

Szerokość geograficzna: 57-28N, Długość geograficzna: 007-22W, wysokość: 6 m

Aktualna obserwacja pogody

Raport powstał 11 godziny i 25 minut temu, godzina 18:50 UTC
Wiatr 9 kt od południowy zachód
Temperatura 17°C
Wilgotność 63%
Ciśnienie 1024 hPa
Widzialność 10 km lub więcej

METAR: EGPL 311850Z AUTO 22009KT 9999 NCD 17/10 Q1024

czas: 07:15 (06:15 UTC)

Prognoza

Raport powstał 10 godziny i 19 minut temu, godzina 19:56 UTC
Prognoza ważna od 31 godzina 21 UTC do 01 godzina 06 UTC
Wiatr 9 kt od południe
Widzialność 10 km lub więcej
Brak chmur poniżej 1500 m i brak chmur cumulonimbus

TAF: EGPL 311956Z 3121/0106 18009KT CAVOK

Obserwacja i prognoza pogody dla ponad 4000 lotnisk (raport METAR i TAF).

Dostępne stacje oznaczono żółtymi i czerwonymi punktami na mapie.

Najedź kursorem aby zobaczyć nazwę stacji.

Kliknij aby zobaczyć obserwacje i prognozy pogody.

Aby zmienić mapę: kliknij na zielony przycisk z czarnym krzyżykiem, aby powiększyć; na zielony przycisk z myślnikiem, aby pomniejszyć; na zielone strzałki, aby przejść do map sąsiednich.


METAR-TAF: